airplane image

note

mic

electronics

Fly Music Sound

What-else

 

 

 

 

LSZB

[Source: ADDS]
METAR
LSZB 190150Z AUTO 09005KT 060V130 9999 OVC023 M05/M09 Q1027 =
TAF

LSZG

[Source: ADDS]
METAR
LSZG 190150Z AUTO 06012KT 9999 OVC021 M04/M07 Q1029 =
TAF

LSZH

[Source: ADDS]
METAR
LSZH 190150Z 04008KT 010V080 9999 OVC020 M04/M09 Q1030 NOSIG =
TAF
LSZH 182325Z 1900/2006 04008KT 9999 OVC022 TXM04/1914Z TNM07/1906Z TNM08/2006Z BECMG 1916/1919 VRB03KT BECMG 1922/2002 BKN012 =